Time;durP1;ratioP1;P1;durP2;ratioP2;P2;SDS_P1;SDS_P2;PMS_P1;PMS_P2;Temp;Humidity;BMP_temperature;BMP_pressure;BME280_temperature;BME280_humidity;BME280_pressure;Samples;Min_cycle;Max_cycle;Signal;HPM_P1;HPM_P2
2023/06/19 00:01:34;;;;;;;7.03;6.43;;;;;;;;;;4936745;29;20665;-78
2023/06/19 00:04:00;;;;;;;6.90;6.30;;;;;;;;;;4936830;29;20174;-78
2023/06/19 00:06:26;;;;;;;7.27;6.67;;;;;;;;;;4930232;29;20311;-78
2023/06/19 00:08:52;;;;;;;7.53;6.80;;;;;;;;;;4928517;29;20210;-78
2023/06/19 00:11:19;;;;;;;7.43;6.60;;;;;;;;;;4934780;29;20204;-78
2023/06/19 00:13:45;;;;;;;10.37;6.80;;;;;;;;;;4919591;29;20206;-78
2023/06/19 00:16:11;;;;;;;8.10;7.30;;;;;;;;;;4937181;29;20208;-78
2023/06/19 00:18:39;;;;;;;9.33;8.00;;;;;;;;;;4933025;29;20187;-78
2023/06/19 00:21:06;;;;;;;9.70;7.93;;;;;;;;;;4918533;29;20250;-79
2023/06/19 00:23:32;;;;;;;9.50;8.57;;;;;;;;;;4930609;29;20265;-78
2023/06/19 00:26:00;;;;;;;8.90;8.10;;;;;;;;;;4934600;29;20269;-79
2023/06/19 00:28:27;;;;;;;10.13;7.50;;;;;;;;;;4935642;29;20570;-79
2023/06/19 00:30:54;;;;;;;9.13;8.13;;;;;;;;;;4936823;29;20194;-79
2023/06/19 00:33:21;;;;;;;8.80;7.93;;;;;;;;;;4920206;29;20232;-78
2023/06/19 00:35:48;;;;;;;8.53;7.83;;;;;;;;;;4936196;29;20254;-78
2023/06/19 00:38:14;;;;;;;9.30;8.50;;;;;;;;;;4935288;29;20213;-79
2023/06/19 00:40:40;;;;;;;8.37;7.67;;;;;;;;;;4926496;29;20285;-78
2023/06/19 00:43:08;;;;;;;8.63;7.83;;;;;;;;;;4935129;29;20304;-78
2023/06/19 00:45:35;;;;;;;8.63;7.53;;;;;;;;;;4933367;29;20162;-78
2023/06/19 00:48:01;;;;;;;7.70;7.00;;;;;;;;;;4915781;29;20194;-78
2023/06/19 00:50:29;;;;;;;8.57;7.80;;;;;;;;;;4917321;29;20182;-78
2023/06/19 00:52:56;;;;;;;8.73;7.83;;;;;;;;;;4923512;29;20231;-78
2023/06/19 00:55:22;;;;;;;8.87;8.07;;;;;;;;;;4936336;29;20190;-78
2023/06/19 00:57:49;;;;;;;8.53;7.73;;;;;;;;;;4936071;29;20634;-79
2023/06/19 01:00:17;;;;;;;9.10;8.20;;;;;;;;;;4935838;29;20189;-78
2023/06/19 01:02:43;;;;;;;8.73;7.90;;;;;;;;;;4936116;29;20222;-78
2023/06/19 01:05:10;;;;;;;8.50;7.60;;;;;;;;;;4937908;29;20177;-78
2023/06/19 01:07:45;;;;;;;8.57;7.67;;;;;;;;;;4936965;29;20190;-79
2023/06/19 01:10:22;;;;;;;7.90;7.10;;;;;;;;;;4931113;29;20248;-79
2023/06/19 01:13:08;;;;;;;8.37;7.67;;;;;;;;;;4935721;29;21123;-79
2023/06/19 01:15:36;;;;;;;8.70;7.80;;;;;;;;;;4935941;29;20182;-79
2023/06/19 01:18:02;;;;;;;8.70;7.90;;;;;;;;;;4935291;29;20178;-78
2023/06/19 01:20:29;;;;;;;8.50;7.63;;;;;;;;;;4937246;29;20185;-78
2023/06/19 01:22:56;;;;;;;8.07;7.37;;;;;;;;;;4933823;29;20249;-78
2023/06/19 01:25:23;;;;;;;8.63;7.93;;;;;;;;;;4924370;29;20189;-78
2023/06/19 01:27:50;;;;;;;8.50;7.50;;;;;;;;;;4917057;29;20186;-78
2023/06/19 01:30:16;;;;;;;8.00;7.30;;;;;;;;;;4918463;29;20254;-78
2023/06/19 01:32:59;;;;;;;8.43;7.10;;;;;;;;;;4934292;29;20213;-78
2023/06/19 01:35:29;;;;;;;8.43;7.73;;;;;;;;;;4933175;29;20614;-78
2023/06/19 01:37:59;;;;;;;8.60;7.90;;;;;;;;;;4917894;29;20204;-78
2023/06/19 01:40:27;;;;;;;8.80;7.90;;;;;;;;;;4935220;29;20185;-78
2023/06/19 01:42:54;;;;;;;9.37;8.50;;;;;;;;;;4902320;29;20214;-78
2023/06/19 01:45:20;;;;;;;9.47;8.10;;;;;;;;;;4936125;29;20182;-78
2023/06/19 01:47:47;;;;;;;10.20;8.43;;;;;;;;;;4907152;29;20639;-78
2023/06/19 01:50:13;;;;;;;9.03;8.23;;;;;;;;;;4928664;29;20639;-78
2023/06/19 01:52:39;;;;;;;8.17;7.47;;;;;;;;;;4919710;29;20208;-80
2023/06/19 01:55:06;;;;;;;8.33;7.63;;;;;;;;;;4935296;29;20729;-79
2023/06/19 01:57:36;;;;;;;8.43;7.43;;;;;;;;;;4933045;29;20179;-79
2023/06/19 02:00:02;;;;;;;8.63;7.73;;;;;;;;;;4916455;29;20701;-79
2023/06/19 02:02:40;;;;;;;9.23;8.33;;;;;;;;;;4922561;29;20299;-80
2023/06/19 02:05:06;;;;;;;9.10;8.30;;;;;;;;;;4935479;29;20181;-79
2023/06/19 02:07:32;;;;;;;9.10;8.30;;;;;;;;;;4933263;29;20189;-79
2023/06/19 02:09:58;;;;;;;8.40;7.63;;;;;;;;;;4925153;29;20178;-79
2023/06/19 02:12:24;;;;;;;9.27;8.37;;;;;;;;;;4915744;29;20210;-79
2023/06/19 02:14:51;;;;;;;8.97;8.17;;;;;;;;;;4899996;29;20635;-79
2023/06/19 02:17:17;;;;;;;9.90;9.00;;;;;;;;;;4938270;29;20200;-80
2023/06/19 02:19:43;;;;;;;9.20;8.30;;;;;;;;;;4932427;29;20197;-79
2023/06/19 02:22:10;;;;;;;10.00;9.10;;;;;;;;;;4936894;29;20214;-79
2023/06/19 02:24:37;;;;;;;9.40;8.43;;;;;;;;;;4934378;29;20187;-79
2023/06/19 02:27:05;;;;;;;10.13;9.33;;;;;;;;;;4937008;29;20194;-80
2023/06/19 02:29:33;;;;;;;9.73;8.53;;;;;;;;;;4939953;29;20355;-80
2023/06/19 02:32:00;;;;;;;8.87;8.07;;;;;;;;;;4924104;29;20596;-80
2023/06/19 02:34:26;;;;;;;8.47;7.80;;;;;;;;;;4919107;29;20185;-80
2023/06/19 02:36:53;;;;;;;9.73;8.20;;;;;;;;;;4935721;29;20281;-80
2023/06/19 02:39:19;;;;;;;9.40;8.13;;;;;;;;;;4929926;29;20218;-80
2023/06/19 02:41:46;;;;;;;8.70;7.80;;;;;;;;;;4954333;29;20213;-80
2023/06/19 02:44:13;;;;;;;9.30;8.23;;;;;;;;;;4938213;29;20186;-79
2023/06/19 02:46:40;;;;;;;8.77;7.97;;;;;;;;;;4938366;29;20185;-80
2023/06/19 02:49:09;;;;;;;8.70;7.93;;;;;;;;;;4931766;29;20209;-80
2023/06/19 02:51:35;;;;;;;8.60;7.90;;;;;;;;;;4936205;29;20186;-80
2023/06/19 02:54:01;;;;;;;7.90;7.20;;;;;;;;;;4929896;29;20694;-80
2023/06/19 02:56:28;;;;;;;9.00;7.73;;;;;;;;;;4935072;29;20241;-79
2023/06/19 02:58:54;;;;;;;7.97;7.20;;;;;;;;;;4932044;29;20680;-80
2023/06/19 03:01:21;;;;;;;8.23;7.53;;;;;;;;;;4925662;29;20781;-80
2023/06/19 03:03:47;;;;;;;8.60;7.30;;;;;;;;;;4936218;29;20909;-79
2023/06/19 03:06:14;;;;;;;7.37;6.77;;;;;;;;;;4925628;29;21710;-79
2023/06/19 03:08:40;;;;;;;7.70;7.03;;;;;;;;;;4929226;29;20182;-80
2023/06/19 03:11:06;;;;;;;7.77;7.07;;;;;;;;;;4932132;29;20189;-79
2023/06/19 03:13:36;;;;;;;8.03;6.80;;;;;;;;;;4929838;29;20209;-80
2023/06/19 03:16:02;;;;;;;7.47;6.70;;;;;;;;;;4931760;29;20337;-79
2023/06/19 03:18:28;;;;;;;8.80;7.23;;;;;;;;;;4941989;29;20194;-80
2023/06/19 03:20:54;;;;;;;10.23;7.70;;;;;;;;;;4928479;29;20182;-79
2023/06/19 03:23:20;;;;;;;7.87;7.17;;;;;;;;;;4934278;29;20682;-80
2023/06/19 03:25:47;;;;;;;7.60;6.73;;;;;;;;;;4924512;29;20685;-80
2023/06/19 03:28:13;;;;;;;7.80;6.97;;;;;;;;;;4937195;29;20178;-79
2023/06/19 03:30:39;;;;;;;7.57;6.97;;;;;;;;;;4938360;29;20194;-80
2023/06/19 03:33:05;;;;;;;7.97;6.30;;;;;;;;;;4931010;29;20554;-79
2023/06/19 03:35:43;;;;;;;6.17;5.67;;;;;;;;;;4934329;29;20229;-79
2023/06/19 03:38:15;;;;;;;6.20;5.70;;;;;;;;;;4919460;29;20185;-79
2023/06/19 03:40:41;;;;;;;6.80;6.17;;;;;;;;;;4926684;29;20182;-79
2023/06/19 03:43:11;;;;;;;6.77;6.17;;;;;;;;;;4929706;29;20217;-80
2023/06/19 03:45:37;;;;;;;6.70;6.20;;;;;;;;;;4921818;29;20182;-80
2023/06/19 03:48:04;;;;;;;6.67;6.17;;;;;;;;;;4926555;29;20186;-79
2023/06/19 03:50:30;;;;;;;6.30;5.77;;;;;;;;;;4925986;29;20182;-80
2023/06/19 03:52:56;;;;;;;5.97;5.37;;;;;;;;;;4894102;29;20198;-79
2023/06/19 03:55:22;;;;;;;5.57;4.90;;;;;;;;;;4937059;29;20194;-79
2023/06/19 03:57:49;;;;;;;5.70;5.10;;;;;;;;;;4933472;29;20570;-79
2023/06/19 04:00:18;;;;;;;4.97;4.57;;;;;;;;;;4929629;29;20188;-79
2023/06/19 04:02:47;;;;;;;5.43;4.90;;;;;;;;;;4915602;29;20214;-79
2023/06/19 04:05:15;;;;;;;6.93;4.70;;;;;;;;;;4936955;29;20610;-79
2023/06/19 04:07:41;;;;;;;4.43;4.03;;;;;;;;;;4917722;29;20237;-80
2023/06/19 04:10:08;;;;;;;4.43;4.03;;;;;;;;;;4932573;29;20178;-79
2023/06/19 04:12:34;;;;;;;4.47;3.80;;;;;;;;;;4928784;29;20202;-79
2023/06/19 04:15:00;;;;;;;5.53;4.23;;;;;;;;;;4929313;29;20190;-79
2023/06/19 04:17:26;;;;;;;5.10;3.90;;;;;;;;;;4926910;29;20705;-79
2023/06/19 04:19:52;;;;;;;6.37;3.63;;;;;;;;;;4928425;29;20185;-79
2023/06/19 04:22:19;;;;;;;4.80;3.77;;;;;;;;;;4922948;29;20213;-79
2023/06/19 04:24:45;;;;;;;4.03;3.63;;;;;;;;;;4918096;29;20209;-79
2023/06/19 04:27:12;;;;;;;3.93;3.53;;;;;;;;;;4933101;29;20767;-79
2023/06/19 04:29:38;;;;;;;4.87;3.87;;;;;;;;;;4929691;29;20570;-79
2023/06/19 04:32:11;;;;;;;4.03;3.63;;;;;;;;;;4929566;29;20693;-79
2023/06/19 04:34:37;;;;;;;3.90;3.60;;;;;;;;;;4929270;29;20181;-79
2023/06/19 04:37:03;;;;;;;3.90;3.60;;;;;;;;;;4933262;29;20190;-80
2023/06/19 04:39:30;;;;;;;3.47;3.17;;;;;;;;;;4938111;29;20326;-79
2023/06/19 04:41:56;;;;;;;3.73;3.43;;;;;;;;;;4930726;29;20205;-80
2023/06/19 04:44:22;;;;;;;5.03;3.57;;;;;;;;;;4932275;29;20173;-79
2023/06/19 04:46:48;;;;;;;4.20;3.40;;;;;;;;;;4928195;29;20186;-79
2023/06/19 04:49:14;;;;;;;5.03;3.53;;;;;;;;;;4935118;29;20670;-80
2023/06/19 04:51:41;;;;;;;4.17;3.77;;;;;;;;;;4928228;29;20241;-80
2023/06/19 04:54:07;;;;;;;3.63;3.33;;;;;;;;;;4925412;29;20182;-79
2023/06/19 04:56:33;;;;;;;3.60;3.30;;;;;;;;;;4921716;29;20190;-80
2023/06/19 04:59:01;;;;;;;3.70;3.40;;;;;;;;;;4925620;29;20182;-80
2023/06/19 05:01:28;;;;;;;4.00;3.60;;;;;;;;;;4923912;29;20175;-80
2023/06/19 05:03:55;;;;;;;3.90;3.50;;;;;;;;;;4908866;29;20206;-80
2023/06/19 05:06:23;;;;;;;4.50;3.60;;;;;;;;;;4924722;29;20189;-80
2023/06/19 05:08:49;;;;;;;4.77;3.53;;;;;;;;;;4934981;29;20170;-79
2023/06/19 05:11:15;;;;;;;3.43;3.20;;;;;;;;;;4932440;29;20233;-79
2023/06/19 05:13:41;;;;;;;6.03;3.87;;;;;;;;;;4933616;29;20584;-77
2023/06/19 05:16:07;;;;;;;3.63;3.33;;;;;;;;;;4928994;29;20228;-77
2023/06/19 05:18:33;;;;;;;5.20;4.70;;;;;;;;;;4933463;29;20189;-80
2023/06/19 05:20:59;;;;;;;4.10;3.80;;;;;;;;;;4926550;29;20273;-80
2023/06/19 05:23:26;;;;;;;4.00;3.60;;;;;;;;;;4933997;29;20217;-79
2023/06/19 05:25:52;;;;;;;3.97;3.67;;;;;;;;;;4926587;29;20224;-82
2023/06/19 05:28:18;;;;;;;4.60;3.43;;;;;;;;;;4893153;29;20219;-85
2023/06/19 05:30:44;;;;;;;3.80;3.47;;;;;;;;;;4910086;29;20197;-82
2023/06/19 05:33:15;;;;;;;4.57;3.50;;;;;;;;;;4932887;29;20217;-83
2023/06/19 05:35:43;;;;;;;4.13;3.40;;;;;;;;;;4935737;29;20252;-80
2023/06/19 05:38:10;;;;;;;3.70;3.40;;;;;;;;;;4919519;29;20701;-80
2023/06/19 05:40:36;;;;;;;4.30;3.23;;;;;;;;;;4928468;29;20186;-80
2023/06/19 05:43:02;;;;;;;3.87;3.40;;;;;;;;;;4940053;29;20209;-81
2023/06/19 05:45:28;;;;;;;4.60;3.60;;;;;;;;;;4935910;29;20234;-82
2023/06/19 05:47:55;;;;;;;3.90;3.60;;;;;;;;;;4935028;29;20190;-81
2023/06/19 05:50:21;;;;;;;3.87;3.57;;;;;;;;;;4916010;29;20197;-78
2023/06/19 05:52:47;;;;;;;3.93;3.53;;;;;;;;;;4899279;29;20214;-79
2023/06/19 05:55:13;;;;;;;5.43;3.53;;;;;;;;;;4916810;29;20201;-80
2023/06/19 05:57:39;;;;;;;3.93;3.60;;;;;;;;;;4927339;29;20190;-82
2023/06/19 06:00:06;;;;;;;4.30;3.57;;;;;;;;;;4931598;29;20193;-83
2023/06/19 06:02:38;;;;;;;4.17;3.60;;;;;;;;;;4933702;29;20222;-81
2023/06/19 06:05:05;;;;;;;3.77;3.40;;;;;;;;;;4944694;29;20189;-82
2023/06/19 06:07:31;;;;;;;4.10;3.20;;;;;;;;;;4940497;28;20216;-77
2023/06/19 06:09:57;;;;;;;3.70;3.40;;;;;;;;;;4928740;29;20213;-80
2023/06/19 06:12:23;;;;;;;3.70;3.40;;;;;;;;;;4938277;28;20215;-81
2023/06/19 06:14:49;;;;;;;3.53;3.23;;;;;;;;;;4951902;28;20213;-80
2023/06/19 06:17:15;;;;;;;4.90;3.60;;;;;;;;;;4930143;29;20193;-79
2023/06/19 06:19:42;;;;;;;4.43;3.80;;;;;;;;;;4930657;29;20192;-79
2023/06/19 06:22:08;;;;;;;4.43;3.63;;;;;;;;;;4924262;29;20698;-79
2023/06/19 06:24:34;;;;;;;4.17;3.43;;;;;;;;;;4932301;29;20190;-80
2023/06/19 06:27:00;;;;;;;3.90;3.43;;;;;;;;;;4936006;29;20345;-80
2023/06/19 06:29:26;;;;;;;3.90;3.60;;;;;;;;;;4936564;29;20210;-80
2023/06/19 06:32:02;;;;;;;3.40;3.07;;;;;;;;;;4939129;29;20697;-80
2023/06/19 06:34:29;;;;;;;3.80;3.50;;;;;;;;;;4936106;29;20508;-80
2023/06/19 06:36:55;;;;;;;3.77;3.47;;;;;;;;;;4934521;29;20190;-80
2023/06/19 06:39:21;;;;;;;4.00;3.70;;;;;;;;;;4930889;29;20186;-80
2023/06/19 06:41:47;;;;;;;4.17;3.70;;;;;;;;;;4919946;29;20639;-80
2023/06/19 06:44:13;;;;;;;3.77;3.40;;;;;;;;;;4920258;29;20184;-80
2023/06/19 06:46:39;;;;;;;5.50;3.20;;;;;;;;;;4929790;29;20213;-79
2023/06/19 06:49:05;;;;;;;4.30;3.90;;;;;;;;;;4916591;29;20595;-80
2023/06/19 06:51:31;;;;;;;4.27;3.87;;;;;;;;;;4917221;29;20182;-80
2023/06/19 06:53:58;;;;;;;4.40;4.00;;;;;;;;;;4927970;29;20190;-80
2023/06/19 06:56:24;;;;;;;3.97;3.67;;;;;;;;;;4930361;29;20242;-81
2023/06/19 06:58:50;;;;;;;4.40;4.00;;;;;;;;;;4925416;29;20551;-80
2023/06/19 07:01:17;;;;;;;5.07;3.80;;;;;;;;;;4914984;29;20198;-79
2023/06/19 07:03:43;;;;;;;5.20;4.00;;;;;;;;;;4919359;29;20225;-79
2023/06/19 07:06:09;;;;;;;4.53;4.13;;;;;;;;;;4930410;29;20221;-79
2023/06/19 07:08:35;;;;;;;5.50;3.70;;;;;;;;;;4931950;29;20178;-80
2023/06/19 07:11:01;;;;;;;6.63;4.43;;;;;;;;;;4935294;29;20666;-81
2023/06/19 07:13:27;;;;;;;4.90;4.47;;;;;;;;;;4929500;29;20216;-80
2023/06/19 07:15:53;;;;;;;5.57;4.37;;;;;;;;;;4935909;29;20193;-79
2023/06/19 07:18:20;;;;;;;4.43;4.03;;;;;;;;;;4934938;29;20208;-80
2023/06/19 07:20:46;;;;;;;5.47;4.60;;;;;;;;;;4935920;29;20190;-80
2023/06/19 07:23:12;;;;;;;4.67;4.27;;;;;;;;;;4937144;29;20210;-80
2023/06/19 07:25:38;;;;;;;4.97;4.50;;;;;;;;;;4919506;29;20272;-80
2023/06/19 07:28:05;;;;;;;5.40;4.50;;;;;;;;;;4935526;29;20248;-81
2023/06/19 07:30:32;;;;;;;5.17;4.70;;;;;;;;;;4934041;29;20274;-80
2023/06/19 07:32:58;;;;;;;5.40;4.90;;;;;;;;;;4933944;29;20209;-79
2023/06/19 07:35:24;;;;;;;5.10;4.60;;;;;;;;;;4931242;29;20197;-80
2023/06/19 07:37:50;;;;;;;7.30;4.70;;;;;;;;;;4934962;29;20186;-79
2023/06/19 07:40:16;;;;;;;4.87;4.47;;;;;;;;;;4922798;29;20277;-80
2023/06/19 07:42:42;;;;;;;5.43;5.03;;;;;;;;;;4915828;29;20226;-80
2023/06/19 07:45:09;;;;;;;6.13;5.40;;;;;;;;;;4917437;29;20178;-80
2023/06/19 07:47:35;;;;;;;5.23;4.77;;;;;;;;;;4922306;29;20182;-80
2023/06/19 07:50:01;;;;;;;5.63;4.90;;;;;;;;;;4914595;29;20186;-80
2023/06/19 07:52:27;;;;;;;6.13;5.13;;;;;;;;;;4930718;29;20229;-80
2023/06/19 07:54:54;;;;;;;5.33;4.93;;;;;;;;;;4933927;29;21994;-80
2023/06/19 07:57:20;;;;;;;7.40;5.23;;;;;;;;;;4927879;29;20225;-80
2023/06/19 07:59:47;;;;;;;7.97;5.37;;;;;;;;;;4935090;29;20196;-80
2023/06/19 08:02:13;;;;;;;6.57;5.13;;;;;;;;;;4935643;29;20224;-80
2023/06/19 08:04:39;;;;;;;5.87;5.27;;;;;;;;;;4931069;29;20187;-80
2023/06/19 08:07:06;;;;;;;5.90;5.40;;;;;;;;;;4917168;29;20256;-80
2023/06/19 08:09:32;;;;;;;5.57;5.10;;;;;;;;;;4918202;29;20275;-80
2023/06/19 08:11:58;;;;;;;5.77;4.97;;;;;;;;;;4924118;29;20221;-80
2023/06/19 08:14:24;;;;;;;6.13;5.40;;;;;;;;;;4918335;29;20190;-80
2023/06/19 08:16:50;;;;;;;5.67;5.27;;;;;;;;;;4935386;29;20208;-80
2023/06/19 08:19:16;;;;;;;6.20;5.70;;;;;;;;;;4933226;29;20199;-81
2023/06/19 08:21:43;;;;;;;5.83;5.33;;;;;;;;;;4933845;29;20556;-80
2023/06/19 08:24:09;;;;;;;7.20;5.40;;;;;;;;;;4934351;29;20589;-80
2023/06/19 08:26:35;;;;;;;10.23;5.83;;;;;;;;;;4928449;29;20190;-81
2023/06/19 08:29:01;;;;;;;7.20;5.90;;;;;;;;;;4933906;29;20192;-79
2023/06/19 08:31:28;;;;;;;6.27;5.70;;;;;;;;;;4935278;29;20571;-78
2023/06/19 08:33:55;;;;;;;6.50;5.90;;;;;;;;;;4934724;29;20690;-79
2023/06/19 08:36:23;;;;;;;6.20;5.60;;;;;;;;;;4933119;29;20225;-79
2023/06/19 08:38:50;;;;;;;7.57;5.80;;;;;;;;;;4930340;29;20193;-79
2023/06/19 08:41:18;;;;;;;6.50;5.80;;;;;;;;;;4933224;29;20375;-78
2023/06/19 08:43:44;;;;;;;8.80;6.13;;;;;;;;;;4917147;29;20592;-78
2023/06/19 08:46:14;;;;;;;6.43;5.63;;;;;;;;;;4934360;29;20186;-78
2023/06/19 08:48:41;;;;;;;7.73;5.83;;;;;;;;;;4927251;29;20192;-78
2023/06/19 08:51:07;;;;;;;7.30;6.60;;;;;;;;;;4929940;29;20204;-78
2023/06/19 08:53:35;;;;;;;6.30;5.70;;;;;;;;;;4935440;29;20209;-79
2023/06/19 08:56:01;;;;;;;6.33;5.70;;;;;;;;;;4934832;29;20735;-79
2023/06/19 08:58:27;;;;;;;6.67;6.07;;;;;;;;;;4931665;29;20208;-79
2023/06/19 09:00:53;;;;;;;6.60;6.00;;;;;;;;;;4930206;29;20193;-79
2023/06/19 09:03:24;;;;;;;6.90;6.20;;;;;;;;;;4929697;29;20573;-79
2023/06/19 09:05:50;;;;;;;8.90;5.50;;;;;;;;;;4935596;29;20280;-79
2023/06/19 09:08:17;;;;;;;6.30;5.70;;;;;;;;;;4930191;29;20221;-78
2023/06/19 09:10:43;;;;;;;6.67;6.00;;;;;;;;;;4935971;29;20221;-78
2023/06/19 09:13:09;;;;;;;6.37;5.77;;;;;;;;;;4933567;29;20213;-78
2023/06/19 09:15:36;;;;;;;6.30;5.80;;;;;;;;;;4935757;29;20205;-79
2023/06/19 09:18:04;;;;;;;6.17;5.60;;;;;;;;;;4934191;29;20193;-79
2023/06/19 09:20:30;;;;;;;6.40;5.77;;;;;;;;;;4931370;29;20217;-79
2023/06/19 09:22:57;;;;;;;6.30;5.70;;;;;;;;;;4931877;29;20256;-79
2023/06/19 09:25:23;;;;;;;6.10;5.60;;;;;;;;;;4926679;29;20187;-79
2023/06/19 09:27:49;;;;;;;7.23;6.13;;;;;;;;;;4933866;29;20694;-78
2023/06/19 09:30:16;;;;;;;6.50;5.90;;;;;;;;;;4934397;29;20663;-79
2023/06/19 09:32:43;;;;;;;6.20;5.60;;;;;;;;;;4930318;29;20237;-79
2023/06/19 09:35:09;;;;;;;6.73;6.20;;;;;;;;;;4934418;29;20185;-78
2023/06/19 09:37:35;;;;;;;7.20;6.60;;;;;;;;;;4933136;29;20218;-78
2023/06/19 09:40:10;;;;;;;7.67;6.97;;;;;;;;;;4929526;29;20221;-79
2023/06/19 09:42:38;;;;;;;6.90;6.20;;;;;;;;;;4929639;29;20258;-79
2023/06/19 09:45:15;;;;;;;6.77;6.20;;;;;;;;;;4930310;29;20200;-79
2023/06/19 09:47:45;;;;;;;6.63;5.90;;;;;;;;;;4928932;29;20269;-79
2023/06/19 09:50:15;;;;;;;7.00;6.40;;;;;;;;;;4933939;29;20194;-79
2023/06/19 09:52:46;;;;;;;6.57;6.07;;;;;;;;;;4932609;29;20217;-78
2023/06/19 09:55:13;;;;;;;6.57;5.97;;;;;;;;;;4931863;29;20181;-79
2023/06/19 09:57:40;;;;;;;6.30;5.80;;;;;;;;;;4935519;29;20182;-79
2023/06/19 10:00:11;;;;;;;7.53;5.83;;;;;;;;;;4921190;29;20194;-79
2023/06/19 10:02:44;;;;;;;8.17;6.20;;;;;;;;;;4926645;29;20305;-79
2023/06/19 10:05:12;;;;;;;5.90;5.50;;;;;;;;;;4931486;29;20177;-79
2023/06/19 10:07:41;;;;;;;6.33;5.77;;;;;;;;;;4929445;29;20835;-79
2023/06/19 10:10:08;;;;;;;5.70;5.30;;;;;;;;;;4933382;29;20744;-77
2023/06/19 10:12:35;;;;;;;6.30;5.67;;;;;;;;;;4936355;29;20553;-76
2023/06/19 10:15:16;;;;;;;6.97;5.50;;;;;;;;;;4938134;29;20194;-75
2023/06/19 10:17:43;;;;;;;6.60;5.50;;;;;;;;;;4937271;29;20193;-81
2023/06/19 10:20:20;;;;;;;6.60;6.10;;;;;;;;;;4932216;29;20199;-80
2023/06/19 10:22:53;;;;;;;6.10;5.60;;;;;;;;;;4939113;29;20221;-80
2023/06/19 10:25:28;;;;;;;7.70;6.23;;;;;;;;;;4938751;29;20204;-78
2023/06/19 10:27:54;;;;;;;9.47;6.53;;;;;;;;;;4939178;29;20261;-78
2023/06/19 10:30:21;;;;;;;6.53;5.93;;;;;;;;;;4940917;29;20572;-78
2023/06/19 10:32:47;;;;;;;6.23;5.73;;;;;;;;;;4939936;29;20232;-78
2023/06/19 10:35:14;;;;;;;8.07;5.37;;;;;;;;;;4924899;29;20281;-77
2023/06/19 10:37:40;;;;;;;6.10;5.50;;;;;;;;;;4924965;29;20182;-77
2023/06/19 10:40:10;;;;;;;5.97;5.37;;;;;;;;;;4941000;29;20282;-77
2023/06/19 10:42:40;;;;;;;5.80;5.27;;;;;;;;;;4941326;29;20207;-78
2023/06/19 10:45:07;;;;;;;5.90;5.40;;;;;;;;;;4940359;29;20205;-78
2023/06/19 10:47:33;;;;;;;6.73;5.43;;;;;;;;;;4940451;29;20240;-78
2023/06/19 10:50:00;;;;;;;5.80;5.13;;;;;;;;;;4940239;29;20174;-78
2023/06/19 10:52:29;;;;;;;5.60;5.20;;;;;;;;;;4941408;29;20245;-78
2023/06/19 10:54:56;;;;;;;6.33;5.73;;;;;;;;;;4942711;29;20227;-78
2023/06/19 10:57:32;;;;;;;6.10;5.57;;;;;;;;;;4926209;29;20287;-78
2023/06/19 10:59:58;;;;;;;5.80;5.10;;;;;;;;;;4925886;29;20344;-78
2023/06/19 11:02:25;;;;;;;6.13;5.53;;;;;;;;;;4932087;29;20354;-80
2023/06/19 11:04:57;;;;;;;5.87;4.90;;;;;;;;;;4937345;29;20181;-80
2023/06/19 11:07:23;;;;;;;5.80;5.07;;;;;;;;;;4918241;29;20198;-78
2023/06/19 11:09:50;;;;;;;6.47;5.87;;;;;;;;;;4923008;29;20222;-78
2023/06/19 11:12:19;;;;;;;5.30;4.90;;;;;;;;;;4930494;29;20300;-78
2023/06/19 11:14:46;;;;;;;5.47;5.00;;;;;;;;;;4944279;29;20203;-78
2023/06/19 11:17:12;;;;;;;5.57;4.83;;;;;;;;;;4936703;29;20252;-79
2023/06/19 11:19:41;;;;;;;5.47;4.87;;;;;;;;;;4934869;29;20547;-81
2023/06/19 11:22:08;;;;;;;5.57;5.07;;;;;;;;;;4920195;29;20210;-78
2023/06/19 11:24:34;;;;;;;5.70;5.30;;;;;;;;;;4930554;29;20181;-78
2023/06/19 11:27:00;;;;;;;5.90;5.50;;;;;;;;;;4918124;29;20551;-78
2023/06/19 11:29:28;;;;;;;5.53;4.77;;;;;;;;;;4930161;29;20211;-78
2023/06/19 11:32:10;;;;;;;5.57;5.10;;;;;;;;;;4916568;29;20216;-77
2023/06/19 11:34:39;;;;;;;5.70;5.20;;;;;;;;;;4931804;29;20232;-78
2023/06/19 11:37:15;;;;;;;5.80;5.30;;;;;;;;;;4923637;29;20193;-78
2023/06/19 11:39:45;;;;;;;5.37;4.97;;;;;;;;;;4928980;29;20185;-78
2023/06/19 11:42:11;;;;;;;5.67;5.17;;;;;;;;;;4933452;29;20309;-78
2023/06/19 11:44:54;;;;;;;5.60;5.10;;;;;;;;;;4933326;29;20185;-78
2023/06/19 11:47:21;;;;;;;5.40;4.50;;;;;;;;;;4921007;29;20654;-78
2023/06/19 11:49:54;;;;;;;4.90;4.43;;;;;;;;;;4914727;29;20188;-78
2023/06/19 11:52:20;;;;;;;6.40;4.70;;;;;;;;;;4927001;29;20218;-78
2023/06/19 11:54:47;;;;;;;4.80;4.40;;;;;;;;;;4926666;29;20271;-78
2023/06/19 11:57:13;;;;;;;4.80;4.40;;;;;;;;;;4930492;29;20195;-78
2023/06/19 11:59:40;;;;;;;5.07;4.57;;;;;;;;;;4928251;29;20228;-78
2023/06/19 12:02:06;;;;;;;5.47;5.00;;;;;;;;;;4934771;29;20224;-78
2023/06/19 12:04:33;;;;;;;5.13;4.63;;;;;;;;;;4936925;29;20207;-78
2023/06/19 12:06:59;;;;;;;4.97;4.43;;;;;;;;;;4931878;29;20186;-79
2023/06/19 12:09:25;;;;;;;5.00;4.50;;;;;;;;;;4924254;29;20183;-78
2023/06/19 12:11:52;;;;;;;3.93;3.70;;;;;;;;;;4935241;29;20213;-78
2023/06/19 12:14:19;;;;;;;4.87;4.37;;;;;;;;;;4934767;29;20656;-78
2023/06/19 12:16:48;;;;;;;4.70;4.30;;;;;;;;;;4934502;29;20240;-78
2023/06/19 12:19:14;;;;;;;5.07;4.67;;;;;;;;;;4932576;29;20182;-78
2023/06/19 12:21:40;;;;;;;5.10;4.60;;;;;;;;;;4930712;29;20196;-78
2023/06/19 12:24:07;;;;;;;4.93;4.53;;;;;;;;;;4933674;29;20217;-78
2023/06/19 12:26:36;;;;;;;5.27;4.60;;;;;;;;;;4931560;29;20182;-78
2023/06/19 12:29:06;;;;;;;4.70;4.37;;;;;;;;;;4931459;29;20698;-78
2023/06/19 12:31:32;;;;;;;5.00;4.60;;;;;;;;;;4933514;29;20197;-78
2023/06/19 12:33:58;;;;;;;4.47;4.07;;;;;;;;;;4932213;29;20821;-78
2023/06/19 12:36:25;;;;;;;4.70;4.30;;;;;;;;;;4930182;29;20189;-78
2023/06/19 12:38:53;;;;;;;4.80;4.47;;;;;;;;;;4929436;29;20268;-80
2023/06/19 12:41:20;;;;;;;4.97;4.30;;;;;;;;;;4919290;29;20211;-80
2023/06/19 12:43:47;;;;;;;4.83;3.63;;;;;;;;;;4932462;29;20256;-82
2023/06/19 12:46:13;;;;;;;8.33;4.63;;;;;;;;;;4932430;29;20185;-82
2023/06/19 12:48:40;;;;;;;5.27;3.60;;;;;;;;;;4924001;29;20665;-80
2023/06/19 12:51:06;;;;;;;4.80;4.30;;;;;;;;;;4923254;29;20192;-80
2023/06/19 12:53:32;;;;;;;4.50;4.10;;;;;;;;;;4916459;29;20256;-80
2023/06/19 12:55:58;;;;;;;5.87;4.67;;;;;;;;;;4916580;29;20272;-79
2023/06/19 12:58:25;;;;;;;4.40;4.10;;;;;;;;;;4914478;29;20762;-81
2023/06/19 13:00:51;;;;;;;5.10;4.60;;;;;;;;;;4936260;29;20192;-79
2023/06/19 13:03:18;;;;;;;4.50;4.10;;;;;;;;;;4935304;29;20269;-79
2023/06/19 13:05:44;;;;;;;5.27;4.77;;;;;;;;;;4924033;29;20751;-79
2023/06/19 13:08:10;;;;;;;5.23;4.83;;;;;;;;;;4938193;29;20194;-79
2023/06/19 13:10:38;;;;;;;4.43;4.13;;;;;;;;;;4949388;28;20211;-79
2023/06/19 13:13:05;;;;;;;4.93;4.43;;;;;;;;;;4936711;29;20285;-79
2023/06/19 13:15:33;;;;;;;4.90;4.20;;;;;;;;;;4924239;29;20261;-79
2023/06/19 13:18:00;;;;;;;4.97;4.47;;;;;;;;;;4928827;29;20198;-78
2023/06/19 13:20:26;;;;;;;5.90;3.80;;;;;;;;;;4933839;29;20682;-78
2023/06/19 13:22:52;;;;;;;4.33;4.03;;;;;;;;;;4933261;29;20257;-78
2023/06/19 13:25:19;;;;;;;4.83;4.30;;;;;;;;;;4935430;29;20648;-78
2023/06/19 13:27:45;;;;;;;4.73;4.33;;;;;;;;;;4929180;29;20220;-78
2023/06/19 13:30:12;;;;;;;4.50;4.20;;;;;;;;;;4933464;29;20200;-78
2023/06/19 13:32:38;;;;;;;4.30;3.90;;;;;;;;;;4932897;29;20208;-78
2023/06/19 13:35:07;;;;;;;4.90;4.50;;;;;;;;;;4939149;29;20573;-78
2023/06/19 13:37:38;;;;;;;4.27;3.97;;;;;;;;;;4936875;29;20248;-78
2023/06/19 13:40:05;;;;;;;4.33;3.93;;;;;;;;;;4955211;29;20292;-78
2023/06/19 13:42:31;;;;;;;4.95;3.90;;;;;;;;;;4936914;29;20637;-79
2023/06/19 13:44:57;;;;;;;4.23;3.93;;;;;;;;;;4933355;29;20182;-82
2023/06/19 13:47:25;;;;;;;4.03;3.70;;;;;;;;;;4933396;29;20186;-82
2023/06/19 13:49:51;;;;;;;3.85;3.55;;;;;;;;;;4934227;29;20191;-83
2023/06/19 13:52:17;;;;;;;3.50;3.30;;;;;;;;;;4935165;29;20212;-81
2023/06/19 13:54:43;;;;;;;5.25;3.30;;;;;;;;;;4925882;29;20196;-83
2023/06/19 13:57:10;;;;;;;3.75;3.45;;;;;;;;;;4936142;29;20192;-83
2023/06/19 13:59:36;;;;;;;3.53;3.22;;;;;;;;;;4938644;29;20186;-83
2023/06/19 14:02:02;;;;;;;4.20;3.90;;;;;;;;;;4940131;29;20213;-83
2023/06/19 14:04:28;;;;;;;4.13;3.73;;;;;;;;;;4937578;29;20215;-83
2023/06/19 14:06:54;;;;;;;4.17;3.73;;;;;;;;;;4936330;29;20241;-84
2023/06/19 14:09:21;;;;;;;4.00;3.60;;;;;;;;;;4938487;29;20189;-83
2023/06/19 14:11:47;;;;;;;6.10;3.90;;;;;;;;;;4940626;29;20180;-83
2023/06/19 14:14:14;;;;;;;5.20;4.23;;;;;;;;;;4945244;29;20197;-83
2023/06/19 14:16:40;;;;;;;3.80;3.50;;;;;;;;;;4932754;29;20283;-83
2023/06/19 14:19:06;;;;;;;3.80;3.50;;;;;;;;;;4940316;29;20189;-82
2023/06/19 14:21:32;;;;;;;3.97;3.67;;;;;;;;;;4933331;29;20186;-80
2023/06/19 14:23:58;;;;;;;3.87;3.57;;;;;;;;;;4924351;29;20218;-80
2023/06/19 14:26:24;;;;;;;4.20;3.60;;;;;;;;;;4927539;29;20177;-82
2023/06/19 14:28:55;;;;;;;6.23;3.90;;;;;;;;;;4927616;29;20298;-82
2023/06/19 14:31:21;;;;;;;4.40;4.00;;;;;;;;;;4932810;29;20663;-82
2023/06/19 14:33:47;;;;;;;3.90;3.60;;;;;;;;;;4936043;29;20225;-82
2023/06/19 14:36:13;;;;;;;4.07;3.33;;;;;;;;;;4936799;29;20707;-82
2023/06/19 14:38:39;;;;;;;4.17;3.80;;;;;;;;;;4934361;29;20225;-82
2023/06/19 14:41:05;;;;;;;3.37;3.17;;;;;;;;;;4917959;29;20691;-82
2023/06/19 14:43:32;;;;;;;5.50;4.37;;;;;;;;;;4932964;29;20291;-82